createdAt,value
2022-07-30T00:02:33.686Z,81.68
2022-07-30T00:05:41.709Z,83.83
2022-07-30T00:08:49.667Z,85.98
2022-07-30T00:11:58.028Z,84.11
2022-07-30T00:14:58.785Z,87.02
2022-07-30T00:18:06.409Z,88.13
2022-07-30T00:21:27.408Z,87.63
2022-07-30T00:24:19.395Z,87.23
2022-07-30T00:27:22.063Z,86.26
2022-07-30T00:30:29.824Z,87.67
2022-07-30T00:33:37.623Z,88.98
2022-07-30T00:36:46.006Z,89.48
2022-07-30T00:39:53.857Z,89.89
2022-07-30T00:43:01.638Z,90.59
2022-07-30T00:46:09.213Z,89.59
2022-07-30T00:49:17.479Z,90.19
2022-07-30T00:52:25.531Z,89.83
2022-07-30T00:55:32.939Z,89.43
2022-07-30T00:58:40.986Z,90.03
2022-07-30T01:01:48.981Z,90.94
2022-07-30T01:04:56.264Z,92.25
2022-07-30T01:08:04.478Z,91.34
2022-07-30T01:11:04.446Z,91.90
2022-07-30T01:14:12.239Z,91.70
2022-07-30T01:17:20.353Z,90.79
2022-07-30T01:20:27.690Z,91.44
2022-07-30T01:23:35.891Z,92.14
2022-07-30T01:26:44.411Z,92.45
2022-07-30T01:29:52.902Z,93.30
2022-07-30T01:33:00.984Z,95.51
2022-07-30T01:36:09.297Z,97.43
2022-07-30T01:39:17.580Z,98.58
2022-07-30T01:42:25.586Z,99.74
2022-07-30T01:45:35.699Z,99.99
2022-07-30T01:48:38.449Z,99.99
2022-07-30T01:51:46.393Z,99.99
2022-07-30T01:54:54.272Z,99.99
2022-07-30T01:58:01.991Z,99.99
2022-07-30T02:01:09.574Z,99.99
2022-07-30T02:04:17.760Z,99.99
2022-07-30T02:07:26.022Z,99.99
2022-07-30T02:10:33.455Z,99.99
2022-07-30T02:13:41.674Z,99.99
2022-07-30T02:16:49.654Z,99.99
2022-07-30T02:19:57.681Z,99.99
2022-07-30T02:23:05.908Z,99.99
2022-07-30T02:26:13.378Z,99.99
2022-07-30T02:29:21.571Z,99.99
2022-07-30T02:32:29.490Z,99.99
2022-07-30T02:35:36.885Z,99.99
2022-07-30T02:38:44.803Z,99.99
2022-07-30T02:41:53.054Z,99.99
2022-07-30T02:45:00.744Z,99.99
2022-07-30T02:48:08.808Z,99.99
2022-07-30T02:51:16.506Z,99.99
2022-07-30T02:54:24.265Z,99.99
2022-07-30T02:57:32.348Z,99.99
2022-07-30T03:00:40.189Z,99.99
2022-07-30T03:03:48.254Z,99.99
2022-07-30T03:06:56.359Z,99.99
2022-07-30T03:10:04.144Z,99.99
2022-07-30T03:13:12.031Z,99.99
2022-07-30T03:16:19.956Z,99.99
2022-07-30T03:19:28.185Z,99.99
2022-07-30T03:22:35.947Z,99.99
2022-07-30T03:25:43.997Z,99.99
2022-07-30T03:28:52.305Z,99.99
2022-07-30T03:32:00.291Z,99.99
2022-07-30T03:35:08.753Z,99.99
2022-07-30T03:38:13.119Z,99.99
2022-07-30T03:41:20.482Z,99.99
2022-07-30T03:44:28.781Z,99.99
2022-07-30T03:47:36.870Z,99.99
2022-07-30T03:50:44.226Z,99.99
2022-07-30T03:53:52.719Z,99.99
2022-07-30T03:57:01.328Z,99.99
2022-07-30T04:00:08.847Z,99.99
2022-07-30T04:03:17.109Z,99.99
2022-07-30T04:06:25.200Z,99.99
2022-07-30T04:09:33.136Z,99.99
2022-07-30T04:12:40.602Z,99.99
2022-07-30T04:16:31.753Z,99.99
2022-07-30T04:18:53.694Z,99.99
2022-07-30T04:22:01.803Z,99.99
2022-07-30T04:25:09.538Z,99.99
2022-07-30T04:28:17.503Z,99.99
2022-07-30T04:31:25.302Z,99.99
2022-07-30T04:34:33.476Z,99.99
2022-07-30T04:37:41.009Z,99.99
2022-07-30T04:40:49.553Z,99.99
2022-07-30T04:43:57.870Z,99.99
2022-07-30T04:47:05.560Z,99.99
2022-07-30T04:50:13.310Z,99.99
2022-07-30T04:53:21.099Z,99.99
2022-07-30T04:56:28.616Z,99.99
2022-07-30T04:59:36.653Z,99.99
2022-07-30T05:02:44.386Z,99.99
2022-07-30T05:05:56.771Z,99.99
2022-07-30T05:08:54.276Z,99.99
2022-07-30T05:12:02.177Z,99.99
2022-07-30T05:15:10.158Z,99.99
2022-07-30T05:18:18.368Z,99.99
2022-07-30T05:21:25.720Z,99.99
2022-07-30T05:24:26.422Z,99.99
2022-07-30T05:27:34.427Z,99.99
2022-07-30T05:30:37.322Z,99.99
2022-07-30T05:33:42.335Z,99.99
2022-07-30T05:36:40.214Z,99.99
2022-07-30T05:39:57.611Z,99.99
2022-07-30T05:42:53.016Z,99.99
2022-07-30T05:46:00.868Z,99.99
2022-07-30T05:49:08.875Z,99.99
2022-07-30T05:52:17.207Z,99.99
2022-07-30T05:55:25.046Z,99.99
2022-07-30T05:58:32.882Z,99.99
2022-07-30T06:01:41.208Z,99.99
2022-07-30T06:04:49.020Z,99.99
2022-07-30T06:07:56.872Z,99.99
2022-07-30T06:11:04.583Z,99.99
2022-07-30T06:14:12.845Z,99.99
2022-07-30T06:17:21.577Z,99.99
2022-07-30T06:20:29.267Z,99.99
2022-07-30T06:23:37.448Z,99.99
2022-07-30T06:26:45.330Z,99.99
2022-07-30T06:29:53.540Z,99.99
2022-07-30T06:33:01.964Z,99.99
2022-07-30T06:36:14.130Z,99.99
2022-07-30T06:39:11.247Z,99.99
2022-07-30T06:42:19.372Z,99.99
2022-07-30T06:45:26.795Z,99.99
2022-07-30T06:48:35.086Z,99.99
2022-07-30T06:51:44.556Z,99.99
2022-07-30T06:54:52.377Z,99.99
2022-07-30T06:58:01.070Z,99.99
2022-07-30T07:01:10.912Z,99.99
2022-07-30T07:04:09.066Z,99.99
2022-07-30T07:07:31.574Z,99.99
2022-07-30T07:10:22.753Z,99.99
2022-07-30T07:13:31.641Z,99.99
2022-07-30T07:16:40.372Z,99.99
2022-07-30T07:19:59.918Z,99.99
2022-07-30T07:22:53.626Z,99.99
2022-07-30T07:26:01.395Z,99.99
2022-07-30T07:29:10.090Z,99.99
2022-07-30T07:32:18.405Z,99.99
2022-07-30T07:35:26.131Z,99.99
2022-07-30T07:38:34.802Z,99.99
2022-07-30T07:41:48.452Z,99.99
2022-07-30T07:44:46.144Z,99.99
2022-07-30T07:47:54.714Z,99.99
2022-07-30T07:51:02.728Z,99.99
2022-07-30T07:54:21.110Z,99.99
2022-07-30T07:57:11.603Z,99.99
2022-07-30T08:00:11.419Z,99.99
2022-07-30T08:03:19.000Z,99.99
2022-07-30T08:06:26.531Z,99.99
2022-07-30T08:09:43.938Z,99.99
2022-07-30T08:12:39.123Z,99.99
2022-07-30T08:15:46.823Z,99.99
2022-07-30T08:18:54.612Z,99.99
2022-07-30T08:22:02.279Z,99.99
2022-07-30T08:25:10.026Z,99.81
2022-07-30T08:28:35.490Z,99.71
2022-07-30T08:31:23.378Z,99.99
2022-07-30T08:34:31.441Z,99.99
2022-07-30T08:37:39.579Z,99.57
2022-07-30T08:40:47.999Z,98.77
2022-07-30T08:43:56.524Z,98.82
2022-07-30T08:47:04.993Z,99.37
2022-07-30T08:50:12.532Z,98.57
2022-07-30T08:53:14.372Z,97.62
2022-07-30T08:56:21.927Z,97.22
2022-07-30T08:59:59.083Z,94.92
2022-07-30T09:02:35.058Z,95.57
2022-07-30T09:05:42.889Z,95.07
2022-07-30T09:08:50.658Z,94.97
2022-07-30T09:11:58.819Z,93.47
2022-07-30T09:15:08.553Z,94.67
2022-07-30T09:18:16.425Z,95.27
2022-07-30T09:21:24.254Z,95.43
2022-07-30T09:24:32.557Z,94.43
2022-07-30T09:27:40.968Z,93.82
2022-07-30T09:30:48.818Z,95.98
2022-07-30T09:33:56.971Z,95.04
2022-07-30T09:37:04.369Z,93.33
2022-07-30T09:40:12.449Z,94.04
2022-07-30T09:43:23.278Z,92.43
2022-07-30T09:46:22.352Z,91.44
2022-07-30T09:49:30.326Z,91.33
2022-07-30T09:52:44.242Z,94.54
2022-07-30T09:55:43.166Z,92.63
2022-07-30T09:58:51.918Z,91.08
2022-07-30T10:02:03.817Z,91.38
2022-07-30T10:05:02.070Z,91.08
2022-07-30T10:08:18.880Z,93.54
2022-07-30T10:11:15.394Z,91.63
2022-07-30T10:14:30.887Z,91.09
2022-07-30T10:17:28.443Z,89.29
2022-07-30T10:20:38.767Z,89.59
2022-07-30T10:23:50.486Z,89.99
2022-07-30T10:26:58.891Z,89.05
2022-07-30T10:30:07.239Z,89.55
2022-07-30T10:33:09.355Z,89.55
2022-07-30T10:36:15.074Z,87.41
2022-07-30T10:39:24.403Z,88.86
2022-07-30T10:42:33.819Z,86.97
2022-07-30T10:45:46.321Z,87.02
2022-07-30T10:48:44.701Z,85.42
2022-07-30T10:51:52.767Z,86.79
2022-07-30T10:55:01.545Z,84.69
2022-07-30T10:58:06.270Z,85.69
2022-07-30T11:01:18.150Z,84.99
2022-07-30T11:04:15.963Z,86.15
2022-07-30T11:07:17.714Z,84.75
2022-07-30T11:10:26.225Z,83.35
2022-07-30T11:13:36.233Z,80.56
2022-07-30T11:16:35.577Z,79.52
2022-07-30T11:19:54.874Z,82.12
2022-07-30T11:22:51.127Z,79.72
2022-07-30T11:25:59.371Z,80.98
2022-07-30T11:29:06.929Z,83.07
2022-07-30T11:32:15.304Z,83.53
2022-07-30T11:35:23.446Z,82.56
2022-07-30T11:38:31.597Z,79.77
2022-07-30T11:41:39.797Z,78.08
2022-07-30T11:44:47.338Z,78.67
2022-07-30T11:47:55.659Z,79.87
2022-07-30T11:51:04.215Z,75.99
2022-07-30T11:54:11.142Z,75.03
2022-07-30T11:57:19.414Z,78.12
2022-07-30T12:00:27.381Z,79.37
2022-07-30T12:03:35.417Z,77.58
2022-07-30T12:06:43.928Z,78.38
2022-07-30T12:09:51.909Z,78.38
2022-07-30T12:12:59.971Z,75.95
2022-07-30T12:16:08.240Z,80.33
2022-07-30T12:19:16.087Z,74.46
2022-07-30T12:22:23.860Z,76.02
2022-07-30T12:25:31.640Z,75.72
2022-07-30T12:28:39.747Z,75.68
2022-07-30T12:31:47.357Z,75.78
2022-07-30T12:34:54.880Z,77.57
2022-07-30T12:38:03.069Z,74.76
2022-07-30T12:41:10.712Z,74.55
2022-07-30T12:44:18.501Z,72.37
2022-07-30T12:47:10.570Z,72.33
2022-07-30T12:50:18.530Z,75.31
2022-07-30T12:53:26.642Z,74.29
2022-07-30T12:56:34.271Z,74.91
2022-07-30T12:59:42.015Z,70.84
2022-07-30T13:02:50.127Z,72.33
2022-07-30T13:05:57.538Z,69.13
2022-07-30T13:09:05.519Z,69.72
2022-07-30T13:12:13.491Z,73.22
2022-07-30T13:15:20.861Z,72.69
2022-07-30T13:18:28.971Z,71.31
2022-07-30T13:21:36.593Z,75.43
2022-07-30T13:24:44.255Z,71.63
2022-07-30T13:27:52.177Z,71.11
2022-07-30T13:30:59.957Z,68.73
2022-07-30T13:34:07.778Z,68.24
2022-07-30T13:37:15.672Z,63.79
2022-07-30T13:40:23.212Z,67.64
2022-07-30T13:43:33.528Z,67.25
2022-07-30T13:46:30.667Z,71.11
2022-07-30T13:49:38.633Z,66.85
2022-07-30T13:52:46.280Z,71.40
2022-07-30T13:55:53.998Z,63.89
2022-07-30T13:59:01.730Z,69.72
2022-07-30T14:02:09.991Z,66.52
2022-07-30T14:05:17.783Z,65.44
2022-07-30T14:08:25.484Z,66.59
2022-07-30T14:11:34.204Z,66.46
2022-07-30T14:14:42.118Z,61.52
2022-07-30T14:17:56.181Z,61.42
2022-07-30T14:20:53.709Z,63.20
2022-07-30T14:24:01.910Z,60.07
2022-07-30T14:27:11.382Z,59.67
2022-07-30T14:30:19.185Z,61.10
2022-07-30T14:33:26.956Z,57.51
2022-07-30T14:36:35.026Z,58.89
2022-07-30T14:39:42.834Z,58.57
2022-07-30T14:42:50.459Z,57.91
2022-07-30T14:45:58.047Z,56.56
2022-07-30T14:49:05.986Z,57.57
2022-07-30T14:52:13.642Z,58.49
2022-07-30T14:55:21.344Z,58.51
2022-07-30T14:58:29.025Z,59.27
2022-07-30T15:01:36.824Z,60.48
2022-07-30T15:04:44.895Z,58.73
2022-07-30T15:07:52.530Z,62.29
2022-07-30T15:11:02.667Z,60.64
2022-07-30T15:14:02.812Z,62.15
2022-07-30T15:17:10.604Z,63.08
2022-07-30T15:20:18.306Z,61.39
2022-07-30T15:23:26.015Z,62.08
2022-07-30T15:26:33.815Z,62.91
2022-07-30T15:29:41.339Z,62.41
2022-07-30T15:32:49.439Z,62.45
2022-07-30T15:35:56.814Z,62.05
2022-07-30T15:39:05.231Z,62.27
2022-07-30T15:42:14.645Z,63.86
2022-07-30T15:45:22.094Z,62.67
2022-07-30T15:48:30.558Z,63.17
2022-07-30T15:51:38.988Z,64.89
2022-07-30T15:54:46.500Z,61.31
2022-07-30T15:57:54.888Z,63.00
2022-07-30T16:01:02.825Z,62.50
2022-07-30T16:04:18.984Z,63.20
2022-07-30T16:07:16.504Z,62.50
2022-07-30T16:10:24.395Z,64.22
2022-07-30T16:13:32.354Z,65.42
2022-07-30T16:16:40.548Z,70.39
2022-07-30T16:19:48.297Z,71.61
2022-07-30T16:22:56.353Z,72.34
2022-07-30T16:26:04.539Z,72.68
2022-07-30T16:29:13.994Z,68.70
2022-07-30T16:32:22.234Z,67.37
2022-07-30T16:35:30.234Z,66.57
2022-07-30T16:38:38.513Z,67.27
2022-07-30T16:41:46.485Z,67.77
2022-07-30T16:44:54.300Z,65.41
2022-07-30T16:48:02.590Z,69.13
2022-07-30T16:51:10.552Z,70.06
2022-07-30T16:54:20.013Z,69.96
2022-07-30T16:57:28.365Z,70.89
2022-07-30T17:00:35.996Z,72.92
2022-07-30T17:03:44.206Z,73.85
2022-07-30T17:06:52.696Z,76.15
2022-07-30T17:10:00.143Z,74.35
2022-07-30T17:13:08.333Z,75.28
2022-07-30T17:16:16.411Z,74.52
2022-07-30T17:19:24.012Z,73.82
2022-07-30T17:22:32.223Z,75.65
2022-07-30T17:25:40.225Z,76.45
2022-07-30T17:28:48.185Z,76.95
2022-07-30T17:31:56.506Z,75.49
2022-07-30T17:35:04.386Z,75.59
2022-07-30T17:38:12.227Z,76.39
2022-07-30T17:41:20.530Z,76.69
2022-07-30T17:44:28.523Z,75.49
2022-07-30T17:47:36.632Z,77.09
2022-07-30T17:50:44.971Z,78.69
2022-07-30T17:53:54.192Z,79.09
2022-07-30T17:57:02.166Z,80.23
2022-07-30T18:00:10.097Z,79.53
2022-07-30T18:03:18.589Z,80.43
2022-07-30T18:06:26.590Z,80.97
2022-07-30T18:09:38.881Z,81.17
2022-07-30T18:12:38.210Z,80.97
2022-07-30T18:15:46.423Z,81.87
2022-07-30T18:18:54.331Z,81.01
2022-07-30T18:22:03.137Z,82.81
2022-07-30T18:25:18.552Z,82.11
2022-07-30T18:28:16.837Z,83.67
2022-07-30T18:31:24.969Z,84.71
2022-07-30T18:34:32.193Z,84.71
2022-07-30T18:37:41.848Z,84.65
2022-07-30T18:40:50.291Z,85.66
2022-07-30T18:43:57.633Z,85.55
2022-07-30T18:47:05.524Z,84.95
2022-07-30T18:50:14.458Z,85.35
2022-07-30T18:53:22.516Z,84.05
2022-07-30T18:56:31.205Z,84.55
2022-07-30T18:59:38.919Z,85.49
2022-07-30T19:02:46.611Z,86.19
2022-07-30T19:05:54.552Z,86.10
2022-07-30T19:09:02.223Z,86.19
2022-07-30T19:12:09.915Z,85.89
2022-07-30T19:15:17.774Z,86.80
2022-07-30T19:18:26.105Z,87.70
2022-07-30T19:21:33.834Z,87.00
2022-07-30T19:24:41.701Z,86.69
2022-07-30T19:27:49.450Z,85.80
2022-07-30T19:30:56.868Z,85.30
2022-07-30T19:34:04.882Z,85.30
2022-07-30T19:37:12.812Z,85.60
2022-07-30T19:40:20.952Z,85.80
2022-07-30T19:43:30.742Z,85.39
2022-07-30T19:46:30.497Z,86.10
2022-07-30T19:49:41.586Z,85.89
2022-07-30T19:52:51.263Z,85.80
2022-07-30T19:55:59.076Z,86.44
2022-07-30T20:02:13.755Z,88.53
2022-07-30T20:05:21.154Z,89.07
2022-07-30T20:08:24.561Z,89.87
2022-07-30T20:11:36.394Z,90.22
2022-07-30T20:14:27.295Z,90.72
2022-07-30T20:17:35.646Z,90.82
2022-07-30T20:20:42.997Z,90.56
2022-07-30T20:23:52.579Z,91.06
2022-07-30T20:27:00.301Z,91.91
2022-07-30T20:30:08.109Z,92.26
2022-07-30T20:33:16.132Z,93.16
2022-07-30T20:36:21.180Z,93.81
2022-07-30T20:39:28.922Z,93.81
2022-07-30T20:42:36.805Z,94.52
2022-07-30T20:45:44.874Z,94.47
2022-07-30T20:48:53.325Z,93.87
2022-07-30T20:52:01.096Z,93.57
2022-07-30T20:55:14.366Z,93.46
2022-07-30T20:58:16.507Z,92.86
2022-07-30T21:01:17.250Z,92.26
2022-07-30T21:04:23.805Z,91.66
2022-07-30T21:07:20.494Z,91.46
2022-07-30T21:10:29.009Z,91.15
2022-07-30T21:13:36.957Z,90.65
2022-07-30T21:16:44.784Z,90.65
2022-07-30T21:19:54.106Z,90.65
2022-07-30T21:23:02.263Z,90.45
2022-07-30T21:26:13.636Z,90.85
2022-07-30T21:29:11.419Z,91.55
2022-07-30T21:32:18.849Z,91.86
2022-07-30T21:35:32.103Z,91.75
2022-07-30T21:38:30.541Z,91.66
2022-07-30T21:41:40.563Z,90.85
2022-07-30T21:44:38.422Z,90.95
2022-07-30T21:47:47.950Z,91.50
2022-07-30T21:50:55.765Z,92.00
2022-07-30T21:54:07.023Z,92.55
2022-07-30T21:57:04.286Z,92.85
2022-07-30T22:00:14.738Z,93.40
2022-07-30T22:04:02.124Z,93.70
2022-07-30T22:06:28.669Z,94.00
2022-07-30T22:09:37.671Z,94.00
2022-07-30T22:12:45.472Z,94.40
2022-07-30T22:15:53.613Z,94.91
2022-07-30T22:19:00.984Z,94.81
2022-07-30T22:22:26.531Z,94.51
2022-07-30T22:25:16.465Z,94.67
2022-07-30T22:28:23.864Z,94.36
2022-07-30T22:31:39.643Z,93.96
2022-07-30T22:34:37.522Z,93.71
2022-07-30T22:37:44.902Z,92.80
2022-07-30T22:40:53.881Z,92.60
2022-07-30T22:44:01.304Z,91.90
2022-07-30T22:47:10.165Z,91.96
2022-07-30T22:50:15.029Z,91.75
2022-07-30T22:54:03.027Z,91.15
2022-07-30T22:56:30.280Z,90.95
2022-07-30T22:59:57.967Z,91.15
2022-07-30T23:02:45.179Z,91.35
2022-07-30T23:05:55.042Z,91.96
2022-07-30T23:08:54.010Z,92.06
2022-07-30T23:12:03.327Z,91.96
2022-07-30T23:12:15.503Z,87.38
2022-07-30T23:15:11.302Z,91.75
2022-07-30T23:18:19.491Z,91.46
2022-07-30T23:21:27.314Z,91.55
2022-07-30T23:24:35.105Z,91.25
2022-07-30T23:27:36.868Z,90.85
2022-07-30T23:30:44.186Z,90.95
2022-07-30T23:33:52.240Z,90.75
2022-07-30T23:37:00.665Z,90.99
2022-07-30T23:40:08.230Z,91.64
2022-07-30T23:43:16.040Z,92.45
2022-07-30T23:46:23.959Z,92.69
2022-07-30T23:49:31.595Z,92.99
2022-07-30T23:52:39.374Z,93.10
2022-07-30T23:55:47.233Z,93.10
2022-07-30T23:58:55.454Z,92.94
